Geridge, Arkansas
Current Conditions -  °F | °C
As of 5:15 AM on Sunday 21 Dec 2014 (Local Time) from KSGT Reporting Station
NA  
Wind Chill: 29°   Ceiling: NA
Heat Index: 34°   Visibility: NA
Dew Point: 30°   Wind: 6mph
Humidity: 87%   Direction: 40°NE
Pressure: 30.2"   Gusts: NA
Location:  34.5894°N, 91.9107°W
Report Text: KSGT 211115Z 04005KT 01/M01 A3020 RMK AO1
Loading
Personal Weather Stations






























Interactive Weather Map New forecast layout! Learn more

10-Day Weather Forecast

Advertisements
Track Severe Weather on mobile